sensor_id;sensor_type;location;lat;lon;timestamp;P1;durP1;ratioP1;P2;durP2;ratioP2
15820;SDS011;8011;51.650;7.240;2022-08-03T03:02:42;3.13;;;2.00;;
15820;SDS011;8011;51.650;7.240;2022-08-03T03:05:09;2.40;;;1.87;;
15820;SDS011;8011;51.650;7.240;2022-08-03T03:07:35;2.33;;;2.03;;
15820;SDS011;8011;51.650;7.240;2022-08-03T03:10:03;3.03;;;2.33;;
15820;SDS011;8011;51.650;7.240;2022-08-03T03:12:30;2.13;;;1.97;;
15820;SDS011;8011;51.650;7.240;2022-08-03T03:14:57;2.97;;;1.93;;
15820;SDS011;8011;51.650;7.240;2022-08-03T03:17:32;3.00;;;1.93;;
15820;SDS011;8011;51.650;7.240;2022-08-03T03:20:00;4.43;;;2.20;;
15820;SDS011;8011;51.650;7.240;2022-08-03T03:22:27;2.20;;;2.00;;
15820;SDS011;8011;51.650;7.240;2022-08-03T03:24:54;2.83;;;2.30;;
15820;SDS011;8011;51.650;7.240;2022-08-03T03:27:20;2.57;;;2.20;;
15820;SDS011;8011;51.650;7.240;2022-08-03T03:29:47;3.83;;;2.17;;
15820;SDS011;8011;51.650;7.240;2022-08-03T03:32:13;2.60;;;2.03;;
15820;SDS011;8011;51.650;7.240;2022-08-03T03:34:39;3.27;;;2.00;;
15820;SDS011;8011;51.650;7.240;2022-08-03T03:37:06;3.33;;;2.40;;
15820;SDS011;8011;51.650;7.240;2022-08-03T03:39:32;2.43;;;2.10;;
15820;SDS011;8011;51.650;7.240;2022-08-03T03:41:58;2.30;;;2.10;;
15820;SDS011;8011;51.650;7.240;2022-08-03T03:44:25;2.57;;;2.07;;
15820;SDS011;8011;51.650;7.240;2022-08-03T03:46:55;3.57;;;1.87;;
15820;SDS011;8011;51.650;7.240;2022-08-03T03:49:22;2.63;;;2.20;;
15820;SDS011;8011;51.650;7.240;2022-08-03T03:51:48;3.37;;;2.50;;
15820;SDS011;8011;51.650;7.240;2022-08-03T03:54:16;4.97;;;2.33;;
15820;SDS011;8011;51.650;7.240;2022-08-03T03:56:42;2.73;;;2.37;;
15820;SDS011;8011;51.650;7.240;2022-08-03T03:59:08;2.43;;;1.80;;
15820;SDS011;8011;51.650;7.240;2022-08-03T04:01:33;2.67;;;2.30;;
15820;SDS011;8011;51.650;7.240;2022-08-03T04:03:59;2.50;;;2.13;;
15820;SDS011;8011;51.650;7.240;2022-08-03T04:06:45;2.57;;;2.13;;
15820;SDS011;8011;51.650;7.240;2022-08-03T04:09:29;3.67;;;2.13;;
15820;SDS011;8011;51.650;7.240;2022-08-03T04:12:14;2.77;;;2.33;;
15820;SDS011;8011;51.650;7.240;2022-08-03T04:14:43;2.73;;;2.30;;
15820;SDS011;8011;51.650;7.240;2022-08-03T04:17:10;3.50;;;2.17;;
15820;SDS011;8011;51.650;7.240;2022-08-03T04:19:40;2.63;;;2.30;;
15820;SDS011;8011;51.650;7.240;2022-08-03T04:22:09;2.47;;;2.27;;
15820;SDS011;8011;51.650;7.240;2022-08-03T04:24:45;2.57;;;1.90;;
15820;SDS011;8011;51.650;7.240;2022-08-03T04:27:17;3.10;;;2.40;;
15820;SDS011;8011;51.650;7.240;2022-08-03T04:29:50;2.90;;;2.10;;
15820;SDS011;8011;51.650;7.240;2022-08-03T04:32:17;2.27;;;2.07;;
15820;SDS011;8011;51.650;7.240;2022-08-03T04:34:44;2.93;;;2.37;;
15820;SDS011;8011;51.650;7.240;2022-08-03T04:37:11;2.77;;;2.33;;
15820;SDS011;8011;51.650;7.240;2022-08-03T04:39:42;4.50;;;2.87;;
15820;SDS011;8011;51.650;7.240;2022-08-03T04:42:12;2.27;;;1.93;;
15820;SDS011;8011;51.650;7.240;2022-08-03T04:44:40;3.67;;;2.40;;
15820;SDS011;8011;51.650;7.240;2022-08-03T04:47:06;2.77;;;2.30;;
15820;SDS011;8011;51.650;7.240;2022-08-03T04:49:33;3.23;;;2.50;;
15820;SDS011;8011;51.650;7.240;2022-08-03T04:52:01;2.67;;;2.47;;
15820;SDS011;8011;51.650;7.240;2022-08-03T04:54:27;3.60;;;2.30;;
15820;SDS011;8011;51.650;7.240;2022-08-03T04:56:53;2.23;;;2.03;;
15820;SDS011;8011;51.650;7.240;2022-08-03T04:59:19;3.23;;;2.40;;
15820;SDS011;8011;51.650;7.240;2022-08-03T05:01:44;3.30;;;2.30;;
15820;SDS011;8011;51.650;7.240;2022-08-03T05:04:10;2.90;;;2.20;;
15820;SDS011;8011;51.650;7.240;2022-08-03T05:06:36;2.63;;;2.30;;
15820;SDS011;8011;51.650;7.240;2022-08-03T05:09:01;2.80;;;2.37;;
15820;SDS011;8011;51.650;7.240;2022-08-03T05:11:27;5.67;;;2.67;;
15820;SDS011;8011;51.650;7.240;2022-08-03T05:13:53;4.07;;;2.57;;
15820;SDS011;8011;51.650;7.240;2022-08-03T05:16:18;2.80;;;2.50;;
15820;SDS011;8011;51.650;7.240;2022-08-03T05:18:44;3.07;;;2.17;;
15820;SDS011;8011;51.650;7.240;2022-08-03T05:21:10;3.90;;;2.57;;
15820;SDS011;8011;51.650;7.240;2022-08-03T05:23:40;2.70;;;2.13;;
15820;SDS011;8011;51.650;7.240;2022-08-03T05:26:06;2.47;;;2.27;;
15820;SDS011;8011;51.650;7.240;2022-08-03T05:28:32;2.73;;;2.37;;
15820;SDS011;8011;51.650;7.240;2022-08-03T05:30:58;3.80;;;2.37;;
15820;SDS011;8011;51.650;7.240;2022-08-03T05:33:23;3.90;;;2.37;;
15820;SDS011;8011;51.650;7.240;2022-08-03T05:35:49;2.87;;;2.57;;
15820;SDS011;8011;51.650;7.240;2022-08-03T05:38:15;2.47;;;2.13;;
15820;SDS011;8011;51.650;7.240;2022-08-03T05:40:40;4.80;;;2.43;;
15820;SDS011;8011;51.650;7.240;2022-08-03T05:43:06;6.80;;;2.80;;
15820;SDS011;8011;51.650;7.240;2022-08-03T05:45:32;3.63;;;2.40;;
15820;SDS011;8011;51.650;7.240;2022-08-03T05:47:57;3.90;;;2.70;;
15820;SDS011;8011;51.650;7.240;2022-08-03T05:50:23;4.20;;;2.27;;
15820;SDS011;8011;51.650;7.240;2022-08-03T05:52:49;5.17;;;2.33;;
15820;SDS011;8011;51.650;7.240;2022-08-03T05:55:14;5.93;;;2.60;;
15820;SDS011;8011;51.650;7.240;2022-08-03T05:57:41;6.10;;;2.87;;
15820;SDS011;8011;51.650;7.240;2022-08-03T06:00:08;3.97;;;2.53;;
15820;SDS011;8011;51.650;7.240;2022-08-03T06:02:35;5.80;;;2.77;;
15820;SDS011;8011;51.650;7.240;2022-08-03T06:05:01;4.97;;;2.67;;
15820;SDS011;8011;51.650;7.240;2022-08-03T06:07:27;3.93;;;2.47;;
15820;SDS011;8011;51.650;7.240;2022-08-03T06:09:53;4.60;;;2.40;;
15820;SDS011;8011;51.650;7.240;2022-08-03T06:12:19;3.93;;;2.83;;
15820;SDS011;8011;51.650;7.240;2022-08-03T06:14:45;4.10;;;2.77;;
15820;SDS011;8011;51.650;7.240;2022-08-03T06:17:10;5.50;;;2.60;;
15820;SDS011;8011;51.650;7.240;2022-08-03T06:19:36;7.77;;;2.80;;
15820;SDS011;8011;51.650;7.240;2022-08-03T06:22:02;3.77;;;2.40;;
15820;SDS011;8011;51.650;7.240;2022-08-03T06:24:27;4.40;;;2.60;;
15820;SDS011;8011;51.650;7.240;2022-08-03T06:26:53;6.37;;;2.53;;
15820;SDS011;8011;51.650;7.240;2022-08-03T06:29:19;3.10;;;2.50;;
15820;SDS011;8011;51.650;7.240;2022-08-03T06:31:45;5.03;;;2.73;;
15820;SDS011;8011;51.650;7.240;2022-08-03T06:34:10;6.20;;;2.50;;
15820;SDS011;8011;51.650;7.240;2022-08-03T06:36:36;5.97;;;2.40;;
15820;SDS011;8011;51.650;7.240;2022-08-03T06:39:02;6.25;;;2.47;;
15820;SDS011;8011;51.650;7.240;2022-08-03T06:41:28;4.68;;;2.53;;
15820;SDS011;8011;51.650;7.240;2022-08-03T06:43:54;3.70;;;2.28;;
15820;SDS011;8011;51.650;7.240;2022-08-03T06:46:20;5.65;;;3.15;;
15820;SDS011;8011;51.650;7.240;2022-08-03T06:48:46;5.28;;;2.80;;
15820;SDS011;8011;51.650;7.240;2022-08-03T06:51:12;4.68;;;2.33;;
15820;SDS011;8011;51.650;7.240;2022-08-03T06:53:38;3.03;;;2.10;;
15820;SDS011;8011;51.650;7.240;2022-08-03T06:56:04;5.20;;;2.40;;
15820;SDS011;8011;51.650;7.240;2022-08-03T06:58:31;5.45;;;2.63;;
15820;SDS011;8011;51.650;7.240;2022-08-03T07:00:56;4.95;;;2.60;;
15820;SDS011;8011;51.650;7.240;2022-08-03T07:03:22;3.00;;;2.10;;
15820;SDS011;8011;51.650;7.240;2022-08-03T07:05:48;5.25;;;2.40;;
15820;SDS011;8011;51.650;7.240;2022-08-03T07:08:15;4.28;;;2.38;;
15820;SDS011;8011;51.650;7.240;2022-08-03T07:10:41;2.72;;;2.13;;
15820;SDS011;8011;51.650;7.240;2022-08-03T07:13:07;3.58;;;2.00;;
15820;SDS011;8011;51.650;7.240;2022-08-03T07:15:33;4.13;;;2.40;;
15820;SDS011;8011;51.650;7.240;2022-08-03T07:17:59;7.93;;;2.30;;
15820;SDS011;8011;51.650;7.240;2022-08-03T07:20:25;4.78;;;2.40;;
15820;SDS011;8011;51.650;7.240;2022-08-03T07:22:50;5.53;;;2.50;;
15820;SDS011;8011;51.650;7.240;2022-08-03T07:25:16;3.45;;;2.15;;
15820;SDS011;8011;51.650;7.240;2022-08-03T07:27:42;3.63;;;2.08;;
15820;SDS011;8011;51.650;7.240;2022-08-03T07:30:09;4.05;;;2.15;;
15820;SDS011;8011;51.650;7.240;2022-08-03T07:32:35;4.07;;;2.53;;
15820;SDS011;8011;51.650;7.240;2022-08-03T07:35:02;3.80;;;1.85;;
15820;SDS011;8011;51.650;7.240;2022-08-03T07:37:28;4.65;;;2.15;;
15820;SDS011;8011;51.650;7.240;2022-08-03T07:39:54;3.15;;;2.20;;
15820;SDS011;8011;51.650;7.240;2022-08-03T07:42:20;3.28;;;2.38;;
15820;SDS011;8011;51.650;7.240;2022-08-03T07:44:47;3.85;;;2.20;;
15820;SDS011;8011;51.650;7.240;2022-08-03T07:47:17;8.00;;;2.15;;
15820;SDS011;8011;51.650;7.240;2022-08-03T07:49:44;5.63;;;1.95;;
15820;SDS011;8011;51.650;7.240;2022-08-03T07:52:09;4.55;;;2.50;;
15820;SDS011;8011;51.650;7.240;2022-08-03T07:54:53;4.82;;;2.80;;
15820;SDS011;8011;51.650;7.240;2022-08-03T07:57:19;2.85;;;1.80;;
15820;SDS011;8011;51.650;7.240;2022-08-03T07:59:45;4.38;;;1.98;;
15820;SDS011;8011;51.650;7.240;2022-08-03T08:02:11;5.60;;;2.20;;
15820;SDS011;8011;51.650;7.240;2022-08-03T08:04:38;5.20;;;2.17;;
15820;SDS011;8011;51.650;7.240;2022-08-03T08:07:03;5.05;;;2.08;;
15820;SDS011;8011;51.650;7.240;2022-08-03T08:09:29;4.35;;;2.05;;
15820;SDS011;8011;51.650;7.240;2022-08-03T08:11:55;3.60;;;1.90;;
15820;SDS011;8011;51.650;7.240;2022-08-03T08:14:21;4.03;;;1.90;;
15820;SDS011;8011;51.650;7.240;2022-08-03T08:16:46;2.80;;;1.80;;
15820;SDS011;8011;51.650;7.240;2022-08-03T08:19:13;5.35;;;1.50;;
15820;SDS011;8011;51.650;7.240;2022-08-03T08:21:40;2.95;;;1.48;;
15820;SDS011;8011;51.650;7.240;2022-08-03T08:24:07;3.80;;;1.55;;
15820;SDS011;8011;51.650;7.240;2022-08-03T08:26:34;4.50;;;1.35;;
15820;SDS011;8011;51.650;7.240;2022-08-03T08:29:00;3.33;;;1.40;;
15820;SDS011;8011;51.650;7.240;2022-08-03T08:31:26;2.13;;;1.40;;
15820;SDS011;8011;51.650;7.240;2022-08-03T08:33:52;4.13;;;1.58;;
15820;SDS011;8011;51.650;7.240;2022-08-03T08:36:17;3.47;;;1.48;;
15820;SDS011;8011;51.650;7.240;2022-08-03T08:38:43;1.75;;;1.33;;
15820;SDS011;8011;51.650;7.240;2022-08-03T08:41:12;1.90;;;1.55;;
15820;SDS011;8011;51.650;7.240;2022-08-03T08:43:39;4.18;;;1.33;;
15820;SDS011;8011;51.650;7.240;2022-08-03T08:46:06;3.75;;;1.60;;
15820;SDS011;8011;51.650;7.240;2022-08-03T08:48:32;4.28;;;1.60;;
15820;SDS011;8011;51.650;7.240;2022-08-03T08:50:59;3.20;;;1.90;;
15820;SDS011;8011;51.650;7.240;2022-08-03T08:53:27;2.70;;;1.40;;
15820;SDS011;8011;51.650;7.240;2022-08-03T08:55:54;4.03;;;1.90;;
15820;SDS011;8011;51.650;7.240;2022-08-03T08:58:24;3.88;;;1.65;;
15820;SDS011;8011;51.650;7.240;2022-08-03T09:00:53;2.95;;;1.40;;
15820;SDS011;8011;51.650;7.240;2022-08-03T09:03:19;2.90;;;1.75;;
15820;SDS011;8011;51.650;7.240;2022-08-03T09:05:44;3.33;;;1.58;;
15820;SDS011;8011;51.650;7.240;2022-08-03T09:08:10;4.05;;;1.50;;
15820;SDS011;8011;51.650;7.240;2022-08-03T09:10:37;3.17;;;1.63;;
15820;SDS011;8011;51.650;7.240;2022-08-03T09:13:02;2.92;;;1.42;;
15820;SDS011;8011;51.650;7.240;2022-08-03T09:15:29;2.70;;;1.58;;
15820;SDS011;8011;51.650;7.240;2022-08-03T09:17:57;3.15;;;1.80;;
15820;SDS011;8011;51.650;7.240;2022-08-03T09:20:26;2.70;;;1.40;;
15820;SDS011;8011;51.650;7.240;2022-08-03T09:22:54;3.22;;;1.45;;
15820;SDS011;8011;51.650;7.240;2022-08-03T09:30:57;3.78;;;1.42;;
15820;SDS011;8011;51.650;7.240;2022-08-03T09:33:23;3.25;;;1.58;;
15820;SDS011;8011;51.650;7.240;2022-08-03T09:35:49;2.08;;;1.42;;
15820;SDS011;8011;51.650;7.240;2022-08-03T09:40:48;2.10;;;1.38;;
15820;SDS011;8011;51.650;7.240;2022-08-03T09:43:14;3.22;;;1.50;;
15820;SDS011;8011;51.650;7.240;2022-08-03T09:45:40;2.50;;;1.27;;
15820;SDS011;8011;51.650;7.240;2022-08-03T09:50:51;2.65;;;1.90;;
15820;SDS011;8011;51.650;7.240;2022-08-03T09:53:21;3.53;;;1.30;;
15820;SDS011;8011;51.650;7.240;2022-08-03T09:58:20;3.75;;;1.48;;
15820;SDS011;8011;51.650;7.240;2022-08-03T10:03:28;4.88;;;1.55;;
15820;SDS011;8011;51.650;7.240;2022-08-03T10:05:56;2.63;;;1.40;;
15820;SDS011;8011;51.650;7.240;2022-08-03T10:08:22;1.75;;;1.45;;
15820;SDS011;8011;51.650;7.240;2022-08-03T10:10:48;2.50;;;1.50;;
15820;SDS011;8011;51.650;7.240;2022-08-03T10:13:15;1.75;;;1.42;;
15820;SDS011;8011;51.650;7.240;2022-08-03T10:15:42;3.35;;;1.48;;
15820;SDS011;8011;51.650;7.240;2022-08-03T10:18:09;3.65;;;1.60;;
15820;SDS011;8011;51.650;7.240;2022-08-03T10:23:12;1.73;;;1.52;;
15820;SDS011;8011;51.650;7.240;2022-08-03T10:25:40;3.50;;;1.77;;
15820;SDS011;8011;51.650;7.240;2022-08-03T10:28:10;3.58;;;1.48;;
15820;SDS011;8011;51.650;7.240;2022-08-03T10:30:40;5.75;;;1.63;;
15820;SDS011;8011;51.650;7.240;2022-08-03T10:33:21;4.03;;;1.60;;
15820;SDS011;8011;51.650;7.240;2022-08-03T10:35:51;2.78;;;1.65;;
15820;SDS011;8011;51.650;7.240;2022-08-03T10:38:22;2.25;;;1.48;;
15820;SDS011;8011;51.650;7.240;2022-08-03T10:40:53;2.70;;;1.60;;
15820;SDS011;8011;51.650;7.240;2022-08-03T10:43:32;3.45;;;1.60;;
15820;SDS011;8011;51.650;7.240;2022-08-03T10:46:03;3.80;;;1.50;;
15820;SDS011;8011;51.650;7.240;2022-08-03T10:48:32;2.53;;;1.60;;
15820;SDS011;8011;51.650;7.240;2022-08-03T10:50:59;2.90;;;1.77;;
15820;SDS011;8011;51.650;7.240;2022-08-03T10:53:36;4.50;;;1.30;;
15820;SDS011;8011;51.650;7.240;2022-08-03T10:56:03;3.75;;;1.75;;
15820;SDS011;8011;51.650;7.240;2022-08-03T10:59:08;1.85;;;1.38;;
15820;SDS011;8011;51.650;7.240;2022-08-03T11:01:48;4.22;;;1.23;;
15820;SDS011;8011;51.650;7.240;2022-08-03T11:04:18;3.08;;;1.50;;
15820;SDS011;8011;51.650;7.240;2022-08-03T11:07:16;4.22;;;1.63;;
15820;SDS011;8011;51.650;7.240;2022-08-03T11:09:41;3.13;;;1.80;;
15820;SDS011;8011;51.650;7.240;2022-08-03T11:14:49;3.35;;;1.67;;
15820;SDS011;8011;51.650;7.240;2022-08-03T11:17:16;5.97;;;1.90;;
15820;SDS011;8011;51.650;7.240;2022-08-03T11:19:44;5.63;;;1.60;;
15820;SDS011;8011;51.650;7.240;2022-08-03T11:22:11;4.90;;;1.50;;
15820;SDS011;8011;51.650;7.240;2022-08-03T11:29:59;3.88;;;1.42;;
15820;SDS011;8011;51.650;7.240;2022-08-03T11:40:33;3.83;;;1.75;;
15820;SDS011;8011;51.650;7.240;2022-08-03T11:46:03;3.58;;;1.20;;
15820;SDS011;8011;51.650;7.240;2022-08-03T11:51:02;2.10;;;1.20;;
15820;SDS011;8011;51.650;7.240;2022-08-03T11:53:29;1.83;;;1.25;;
15820;SDS011;8011;51.650;7.240;2022-08-03T11:56:01;2.45;;;1.42;;
15820;SDS011;8011;51.650;7.240;2022-08-03T11:58:28;5.47;;;1.42;;
15820;SDS011;8011;51.650;7.240;2022-08-03T12:01:06;2.50;;;1.13;;
15820;SDS011;8011;51.650;7.240;2022-08-03T12:03:33;2.33;;;1.10;;
15820;SDS011;8011;51.650;7.240;2022-08-03T12:05:59;1.20;;;0.88;;
15820;SDS011;8011;51.650;7.240;2022-08-03T12:08:32;3.63;;;1.13;;
15820;SDS011;8011;51.650;7.240;2022-08-03T12:10:59;4.82;;;1.05;;
15820;SDS011;8011;51.650;7.240;2022-08-03T12:13:26;2.80;;;1.17;;
15820;SDS011;8011;51.650;7.240;2022-08-03T12:16:21;5.45;;;1.20;;
15820;SDS011;8011;51.650;7.240;2022-08-03T12:18:54;1.88;;;1.08;;
15820;SDS011;8011;51.650;7.240;2022-08-03T12:21:25;2.60;;;1.00;;
15820;SDS011;8011;51.650;7.240;2022-08-03T12:23:54;2.72;;;1.40;;
15820;SDS011;8011;51.650;7.240;2022-08-03T12:26:25;9.70;;;1.52;;
15820;SDS011;8011;51.650;7.240;2022-08-03T12:28:51;3.22;;;1.33;;
15820;SDS011;8011;51.650;7.240;2022-08-03T12:31:17;4.22;;;1.20;;
15820;SDS011;8011;51.650;7.240;2022-08-03T12:34:00;5.03;;;1.20;;
15820;SDS011;8011;51.650;7.240;2022-08-03T12:36:28;4.40;;;1.20;;
15820;SDS011;8011;51.650;7.240;2022-08-03T12:38:57;3.03;;;0.82;;
15820;SDS011;8011;51.650;7.240;2022-08-03T12:41:36;5.20;;;1.23;;
15820;SDS011;8011;51.650;7.240;2022-08-03T12:44:03;2.20;;;0.95;;
15820;SDS011;8011;51.650;7.240;2022-08-03T12:46:32;2.83;;;1.10;;
15820;SDS011;8011;51.650;7.240;2022-08-03T12:49:08;2.05;;;1.20;;
15820;SDS011;8011;51.650;7.240;2022-08-03T12:54:09;2.95;;;1.15;;
15820;SDS011;8011;51.650;7.240;2022-08-03T12:59:40;4.68;;;1.13;;
15820;SDS011;8011;51.650;7.240;2022-08-03T13:02:17;4.25;;;1.10;;
15820;SDS011;8011;51.650;7.240;2022-08-03T13:04:45;3.13;;;1.10;;
15820;SDS011;8011;51.650;7.240;2022-08-03T13:07:13;2.20;;;1.30;;
15820;SDS011;8011;51.650;7.240;2022-08-03T13:12:14;4.22;;;1.10;;
15820;SDS011;8011;51.650;7.240;2022-08-03T13:14:42;2.17;;;1.15;;
15820;SDS011;8011;51.650;7.240;2022-08-03T13:17:10;2.67;;;1.10;;
15820;SDS011;8011;51.650;7.240;2022-08-03T13:19:36;2.05;;;1.27;;
15820;SDS011;8011;51.650;7.240;2022-08-03T13:22:10;3.28;;;2.05;;
15820;SDS011;8011;51.650;7.240;2022-08-03T13:24:36;2.17;;;1.15;;
15820;SDS011;8011;51.650;7.240;2022-08-03T13:27:03;4.03;;;1.20;;
15820;SDS011;8011;51.650;7.240;2022-08-03T13:29:31;4.78;;;1.52;;
15820;SDS011;8011;51.650;7.240;2022-08-03T13:31:58;3.53;;;1.08;;
15820;SDS011;8011;51.650;7.240;2022-08-03T13:34:24;2.08;;;0.80;;
15820;SDS011;8011;51.650;7.240;2022-08-03T13:36:50;2.55;;;1.00;;
15820;SDS011;8011;51.650;7.240;2022-08-03T13:39:17;3.38;;;0.90;;
15820;SDS011;8011;51.650;7.240;2022-08-03T13:41:44;1.90;;;1.02;;
15820;SDS011;8011;51.650;7.240;2022-08-03T13:44:10;2.47;;;1.08;;
15820;SDS011;8011;51.650;7.240;2022-08-03T13:46:36;1.95;;;0.90;;
15820;SDS011;8011;51.650;7.240;2022-08-03T13:49:02;4.15;;;1.10;;
15820;SDS011;8011;51.650;7.240;2022-08-03T13:51:28;3.78;;;0.90;;
15820;SDS011;8011;51.650;7.240;2022-08-03T13:53:54;1.95;;;1.00;;
15820;SDS011;8011;51.650;7.240;2022-08-03T13:56:20;2.75;;;1.30;;
15820;SDS011;8011;51.650;7.240;2022-08-03T13:58:45;1.92;;;0.90;;
15820;SDS011;8011;51.650;7.240;2022-08-03T14:01:11;2.97;;;1.00;;
15820;SDS011;8011;51.650;7.240;2022-08-03T14:03:37;1.55;;;0.80;;
15820;SDS011;8011;51.650;7.240;2022-08-03T14:06:03;0.98;;;0.73;;
15820;SDS011;8011;51.650;7.240;2022-08-03T14:08:29;1.98;;;0.90;;
15820;SDS011;8011;51.650;7.240;2022-08-03T14:10:54;2.53;;;1.05;;
15820;SDS011;8011;51.650;7.240;2022-08-03T14:13:20;3.60;;;1.27;;
15820;SDS011;8011;51.650;7.240;2022-08-03T14:15:46;1.23;;;0.70;;
15820;SDS011;8011;51.650;7.240;2022-08-03T14:18:12;3.17;;;1.02;;
15820;SDS011;8011;51.650;7.240;2022-08-03T14:20:38;1.30;;;0.82;;
15820;SDS011;8011;51.650;7.240;2022-08-03T14:23:03;2.85;;;1.33;;
15820;SDS011;8011;51.650;7.240;2022-08-03T14:25:30;3.20;;;1.15;;
15820;SDS011;8011;51.650;7.240;2022-08-03T14:27:56;2.33;;;1.02;;
15820;SDS011;8011;51.650;7.240;2022-08-03T14:30:22;5.05;;;1.40;;
15820;SDS011;8011;51.650;7.240;2022-08-03T14:32:47;2.58;;;1.30;;
15820;SDS011;8011;51.650;7.240;2022-08-03T14:35:13;2.13;;;1.02;;
15820;SDS011;8011;51.650;7.240;2022-08-03T14:37:39;3.55;;;1.30;;
15820;SDS011;8011;51.650;7.240;2022-08-03T14:40:05;2.70;;;1.20;;
15820;SDS011;8011;51.650;7.240;2022-08-03T14:42:31;2.45;;;1.02;;
15820;SDS011;8011;51.650;7.240;2022-08-03T14:44:56;2.55;;;1.05;;
15820;SDS011;8011;51.650;7.240;2022-08-03T14:47:22;2.40;;;0.98;;
15820;SDS011;8011;51.650;7.240;2022-08-03T14:49:48;2.20;;;1.02;;
15820;SDS011;8011;51.650;7.240;2022-08-03T14:52:14;3.22;;;0.88;;
15820;SDS011;8011;51.650;7.240;2022-08-03T14:54:39;2.35;;;1.45;;
15820;SDS011;8011;51.650;7.240;2022-08-03T14:57:05;4.38;;;1.38;;
15820;SDS011;8011;51.650;7.240;2022-08-03T14:59:30;4.97;;;1.05;;
15820;SDS011;8011;51.650;7.240;2022-08-03T15:01:56;6.05;;;1.10;;
15820;SDS011;8011;51.650;7.240;2022-08-03T15:04:22;2.58;;;1.10;;
15820;SDS011;8011;51.650;7.240;2022-08-03T15:06:48;3.15;;;0.80;;
15820;SDS011;8011;51.650;7.240;2022-08-03T15:09:13;3.40;;;1.00;;
15820;SDS011;8011;51.650;7.240;2022-08-03T15:11:39;3.00;;;1.20;;
15820;SDS011;8011;51.650;7.240;2022-08-03T15:14:05;3.33;;;0.90;;
15820;SDS011;8011;51.650;7.240;2022-08-03T15:16:31;4.40;;;1.00;;
15820;SDS011;8011;51.650;7.240;2022-08-03T15:18:56;2.50;;;1.10;;
15820;SDS011;8011;51.650;7.240;2022-08-03T15:21:23;2.03;;;0.80;;
15820;SDS011;8011;51.650;7.240;2022-08-03T15:23:48;1.23;;;0.80;;
15820;SDS011;8011;51.650;7.240;2022-08-03T15:26:14;2.80;;;0.82;;
15820;SDS011;8011;51.650;7.240;2022-08-03T15:28:39;0.82;;;0.68;;
15820;SDS011;8011;51.650;7.240;2022-08-03T15:31:05;1.98;;;0.80;;
15820;SDS011;8011;51.650;7.240;2022-08-03T15:33:31;2.83;;;0.80;;
15820;SDS011;8011;51.650;7.240;2022-08-03T15:35:56;3.22;;;0.98;;
15820;SDS011;8011;51.650;7.240;2022-08-03T15:38:23;6.32;;;1.05;;
15820;SDS011;8011;51.650;7.240;2022-08-03T15:40:49;3.08;;;1.08;;
15820;SDS011;8011;51.650;7.240;2022-08-03T15:43:18;3.65;;;1.00;;
15820;SDS011;8011;51.650;7.240;2022-08-03T15:45:45;2.42;;;1.08;;
15820;SDS011;8011;51.650;7.240;2022-08-03T15:48:11;5.18;;;1.08;;
15820;SDS011;8011;51.650;7.240;2022-08-03T15:50:37;1.25;;;0.90;;
15820;SDS011;8011;51.650;7.240;2022-08-03T15:53:03;1.48;;;0.82;;
15820;SDS011;8011;51.650;7.240;2022-08-03T15:55:28;3.50;;;0.73;;
15820;SDS011;8011;51.650;7.240;2022-08-03T15:57:55;2.80;;;1.33;;
15820;SDS011;8011;51.650;7.240;2022-08-03T16:00:21;1.10;;;0.68;;
15820;SDS011;8011;51.650;7.240;2022-08-03T16:02:47;1.65;;;0.80;;
15820;SDS011;8011;51.650;7.240;2022-08-03T16:05:13;3.13;;;0.80;;
15820;SDS011;8011;51.650;7.240;2022-08-03T16:07:38;2.08;;;0.70;;
15820;SDS011;8011;51.650;7.240;2022-08-03T16:10:07;3.00;;;0.70;;
15820;SDS011;8011;51.650;7.240;2022-08-03T16:12:34;1.55;;;0.70;;
15820;SDS011;8011;51.650;7.240;2022-08-03T16:15:01;2.70;;;0.50;;
15820;SDS011;8011;51.650;7.240;2022-08-03T16:17:28;1.38;;;0.70;;
15820;SDS011;8011;51.650;7.240;2022-08-03T16:19:53;1.67;;;0.93;;
15820;SDS011;8011;51.650;7.240;2022-08-03T16:22:20;1.58;;;0.80;;
15820;SDS011;8011;51.650;7.240;2022-08-03T16:24:46;2.45;;;0.88;;
15820;SDS011;8011;51.650;7.240;2022-08-03T16:27:12;1.15;;;0.80;;
15820;SDS011;8011;51.650;7.240;2022-08-03T16:29:37;1.52;;;0.60;;
15820;SDS011;8011;51.650;7.240;2022-08-03T16:32:03;1.60;;;0.60;;
15820;SDS011;8011;51.650;7.240;2022-08-03T16:34:33;2.75;;;0.75;;
15820;SDS011;8011;51.650;7.240;2022-08-03T16:36:59;2.88;;;0.60;;
15820;SDS011;8011;51.650;7.240;2022-08-03T16:39:25;1.20;;;0.68;;
15820;SDS011;8011;51.650;7.240;2022-08-03T16:41:51;1.15;;;0.60;;
15820;SDS011;8011;51.650;7.240;2022-08-03T16:44:17;2.00;;;0.77;;
15820;SDS011;8011;51.650;7.240;2022-08-03T16:46:42;2.17;;;0.70;;
15820;SDS011;8011;51.650;7.240;2022-08-03T16:49:09;1.88;;;0.90;;
15820;SDS011;8011;51.650;7.240;2022-08-03T16:51:35;3.83;;;0.77;;
15820;SDS011;8011;51.650;7.240;2022-08-03T16:54:03;2.42;;;0.70;;
15820;SDS011;8011;51.650;7.240;2022-08-03T16:56:29;1.55;;;0.75;;
15820;SDS011;8011;51.650;7.240;2022-08-03T16:58:55;3.55;;;0.80;;
15820;SDS011;8011;51.650;7.240;2022-08-03T17:01:20;2.05;;;0.73;;
15820;SDS011;8011;51.650;7.240;2022-08-03T17:03:47;1.23;;;0.73;;
15820;SDS011;8011;51.650;7.240;2022-08-03T17:06:14;1.85;;;0.60;;
15820;SDS011;8011;51.650;7.240;2022-08-03T17:08:40;3.47;;;1.00;;
15820;SDS011;8011;51.650;7.240;2022-08-03T17:11:06;2.03;;;0.80;;
15820;SDS011;8011;51.650;7.240;2022-08-03T17:13:32;1.35;;;0.80;;
15820;SDS011;8011;51.650;7.240;2022-08-03T17:15:59;1.10;;;0.60;;
15820;SDS011;8011;51.650;7.240;2022-08-03T17:18:33;2.67;;;0.90;;
15820;SDS011;8011;51.650;7.240;2022-08-03T17:21:02;1.27;;;0.70;;
15820;SDS011;8011;51.650;7.240;2022-08-03T17:25:58;2.33;;;0.73;;
15820;SDS011;8011;51.650;7.240;2022-08-03T17:28:27;2.35;;;0.70;;
15820;SDS011;8011;51.650;7.240;2022-08-03T17:31:01;1.33;;;0.70;;
15820;SDS011;8011;51.650;7.240;2022-08-03T17:33:39;2.53;;;0.70;;
15820;SDS011;8011;51.650;7.240;2022-08-03T17:36:06;5.57;;;0.70;;
15820;SDS011;8011;51.650;7.240;2022-08-03T17:38:34;2.97;;;0.75;;
15820;SDS011;8011;51.650;7.240;2022-08-03T17:41:01;2.15;;;0.68;;
15820;SDS011;8011;51.650;7.240;2022-08-03T17:43:27;1.70;;;0.85;;
15820;SDS011;8011;51.650;7.240;2022-08-03T17:45:53;2.60;;;0.95;;
15820;SDS011;8011;51.650;7.240;2022-08-03T17:48:19;1.67;;;0.65;;
15820;SDS011;8011;51.650;7.240;2022-08-03T17:50:47;1.95;;;0.50;;
15820;SDS011;8011;51.650;7.240;2022-08-03T17:53:19;1.27;;;0.65;;
15820;SDS011;8011;51.650;7.240;2022-08-03T17:55:53;3.70;;;0.70;;
15820;SDS011;8011;51.650;7.240;2022-08-03T18:01:31;3.40;;;0.88;;
15820;SDS011;8011;51.650;7.240;2022-08-03T18:04:27;2.15;;;0.60;;
15820;SDS011;8011;51.650;7.240;2022-08-03T18:06:53;2.58;;;0.65;;
15820;SDS011;8011;51.650;7.240;2022-08-03T18:09:21;2.28;;;0.95;;
15820;SDS011;8011;51.650;7.240;2022-08-03T18:11:52;3.75;;;1.10;;
15820;SDS011;8011;51.650;7.240;2022-08-03T18:17:16;3.65;;;0.90;;
15820;SDS011;8011;51.650;7.240;2022-08-03T18:19:50;3.05;;;1.00;;
15820;SDS011;8011;51.650;7.240;2022-08-03T18:22:19;4.10;;;0.90;;
15820;SDS011;8011;51.650;7.240;2022-08-03T18:24:45;2.55;;;0.85;;
15820;SDS011;8011;51.650;7.240;2022-08-03T18:27:13;2.88;;;1.05;;
15820;SDS011;8011;51.650;7.240;2022-08-03T18:29:40;5.85;;;1.17;;
15820;SDS011;8011;51.650;7.240;2022-08-03T18:32:09;3.38;;;1.00;;
15820;SDS011;8011;51.650;7.240;2022-08-03T18:34:36;4.93;;;1.20;;
15820;SDS011;8011;51.650;7.240;2022-08-03T18:37:02;5.55;;;1.10;;
15820;SDS011;8011;51.650;7.240;2022-08-03T18:39:28;4.15;;;1.52;;
15820;SDS011;8011;51.650;7.240;2022-08-03T18:41:56;4.03;;;1.10;;
15820;SDS011;8011;51.650;7.240;2022-08-03T18:44:24;2.22;;;0.93;;
15820;SDS011;8011;51.650;7.240;2022-08-03T18:47:02;2.85;;;0.90;;
15820;SDS011;8011;51.650;7.240;2022-08-03T18:49:49;7.45;;;1.45;;
15820;SDS011;8011;51.650;7.240;2022-08-03T18:55:17;7.63;;;1.02;;
15820;SDS011;8011;51.650;7.240;2022-08-03T18:57:49;7.18;;;1.30;;
15820;SDS011;8011;51.650;7.240;2022-08-03T19:00:19;4.55;;;0.70;;
15820;SDS011;8011;51.650;7.240;2022-08-03T19:02:51;8.35;;;0.90;;
15820;SDS011;8011;51.650;7.240;2022-08-03T19:05:25;2.13;;;1.10;;